Garnavillo, Iowa
Current Conditions -  °F | °C
As of 4:35 AM on Saturday 25 Oct 2014 (Local Time) from KPDC Reporting Station
Clear Clear  
Wind Chill: 54°   Ceiling: Unl
Heat Index: 54°   Visibility: 7mi
Dew Point: 51°   Wind: 3mph
Humidity: 91%   Direction: 260°W
Pressure: 29.93"   Gusts: NA
Location:  42.87°N, 91.24°W
Report Text: KPDC 250935Z AUTO 26003KT 7SM CLR 12/11 A2993 RMK AO2 T01220108
Loading
Personal Weather Stations






























Interactive Weather Map
Tropical Storm Tracking
New forecast layout! Learn more

10-Day Weather Forecast

Advertisements
Track Severe Weather on mobile